createdAt,value
2024-01-19T00:01:19.472Z,80.51
2024-01-19T00:03:59.292Z,80.69
2024-01-19T00:06:38.601Z,81.12
2024-01-19T00:09:23.414Z,81.26
2024-01-19T00:12:02.762Z,80.75
2024-01-19T00:14:42.688Z,81.04
2024-01-19T00:17:21.998Z,81.29
2024-01-19T00:20:01.409Z,81.73
2024-01-19T00:22:40.704Z,81.33
2024-01-19T00:25:25.395Z,81.51
2024-01-19T00:28:04.659Z,81.72
2024-01-19T00:30:43.926Z,81.33
2024-01-19T00:33:23.253Z,81.32
2024-01-19T00:36:02.806Z,80.98
2024-01-19T00:38:42.178Z,81.94
2024-01-19T00:41:28.599Z,81.84
2024-01-19T00:44:07.910Z,83.14
2024-01-19T00:46:47.303Z,83.46
2024-01-19T00:49:26.663Z,84.45
2024-01-19T00:52:05.981Z,82.16
2024-01-19T00:54:45.480Z,81.88
2024-01-19T00:57:29.900Z,82.05
2024-01-19T01:00:09.247Z,82.12
2024-01-19T01:02:48.531Z,82.46
2024-01-19T01:05:28.025Z,82.05
2024-01-19T01:08:08.063Z,82.26
2024-01-19T01:10:47.667Z,82.60
2024-01-19T01:13:32.152Z,82.47
2024-01-19T01:16:11.786Z,83.15
2024-01-19T01:18:51.155Z,83.56
2024-01-19T01:21:30.450Z,83.44
2024-01-19T01:24:09.784Z,83.18
2024-01-19T01:26:49.166Z,82.92
2024-01-19T01:29:33.616Z,83.19
2024-01-19T01:32:13.629Z,82.72
2024-01-19T01:34:52.977Z,82.74
2024-01-19T01:37:32.268Z,83.06
2024-01-19T01:40:13.223Z,83.59
2024-01-19T01:42:52.791Z,83.73
2024-01-19T01:45:37.556Z,83.45
2024-01-19T01:48:17.084Z,83.45
2024-01-19T01:50:57.276Z,83.26
2024-01-19T01:53:36.719Z,82.99
2024-01-19T01:56:16.387Z,82.78
2024-01-19T01:58:55.726Z,83.02
2024-01-19T02:01:40.884Z,83.38
2024-01-19T02:04:21.035Z,83.67
2024-01-19T02:07:00.844Z,82.77
2024-01-19T02:09:41.385Z,81.05
2024-01-19T02:12:20.962Z,80.71
2024-01-19T02:15:00.301Z,80.73
2024-01-19T02:17:44.964Z,81.14
2024-01-19T02:20:24.448Z,81.59
2024-01-19T02:23:03.934Z,81.94
2024-01-19T02:25:48.569Z,82.06
2024-01-19T02:28:29.225Z,82.06
2024-01-19T02:31:08.496Z,81.82
2024-01-19T02:33:47.791Z,81.95
2024-01-19T02:36:27.195Z,81.78
2024-01-19T02:39:07.556Z,81.21
2024-01-19T02:41:52.143Z,81.67
2024-01-19T02:44:31.506Z,81.63
2024-01-19T02:47:10.989Z,80.58
2024-01-19T02:49:50.342Z,80.66
2024-01-19T02:52:29.756Z,80.76
2024-01-19T02:55:09.576Z,80.38
2024-01-19T02:57:53.919Z,80.43
2024-01-19T03:00:33.341Z,81.06
2024-01-19T03:03:13.222Z,82.25
2024-01-19T03:05:52.560Z,83.01
2024-01-19T03:08:32.159Z,82.84
2024-01-19T03:11:11.670Z,82.57
2024-01-19T03:13:56.282Z,81.93
2024-01-19T03:16:35.699Z,81.03
2024-01-19T03:19:15.007Z,81.05
2024-01-19T03:21:54.357Z,80.80
2024-01-19T03:24:33.741Z,80.28
2024-01-19T03:27:13.339Z,80.42
2024-01-19T03:29:57.940Z,81.41
2024-01-19T03:32:37.316Z,81.37
2024-01-19T03:35:16.951Z,81.34
2024-01-19T03:37:56.257Z,81.91
2024-01-19T03:40:35.556Z,82.80
2024-01-19T03:43:15.669Z,83.03
2024-01-19T03:45:59.981Z,82.94
2024-01-19T03:48:42.621Z,83.30
2024-01-19T03:51:21.981Z,83.54
2024-01-19T03:54:01.329Z,83.22
2024-01-19T03:56:40.697Z,83.59
2024-01-19T03:59:20.364Z,83.67
2024-01-19T04:02:07.294Z,83.14
2024-01-19T04:04:46.736Z,82.90
2024-01-19T04:07:26.181Z,82.10
2024-01-19T04:10:06.316Z,81.39
2024-01-19T04:12:45.638Z,81.59
2024-01-19T04:15:24.926Z,82.00
2024-01-19T04:18:09.531Z,81.66
2024-01-19T04:20:48.972Z,81.56
2024-01-19T04:23:28.334Z,81.80
2024-01-19T04:26:07.881Z,82.16
2024-01-19T04:28:47.289Z,82.64
2024-01-19T04:31:26.560Z,83.22
2024-01-19T04:34:11.296Z,83.35
2024-01-19T04:36:50.643Z,83.57
2024-01-19T04:39:29.940Z,82.38
2024-01-19T04:42:10.220Z,82.04
2024-01-19T04:44:49.541Z,81.99
2024-01-19T04:47:29.096Z,81.26
2024-01-19T04:50:14.920Z,81.02
2024-01-19T04:52:54.213Z,81.26
2024-01-19T04:55:33.513Z,81.60
2024-01-19T04:58:12.875Z,81.61
2024-01-19T05:00:52.200Z,81.57
2024-01-19T05:03:31.540Z,81.86
2024-01-19T05:06:16.186Z,81.80
2024-01-19T05:08:55.579Z,81.96
2024-01-19T05:11:34.994Z,81.52
2024-01-19T05:14:14.393Z,81.67
2024-01-19T05:16:53.685Z,81.71
2024-01-19T05:19:33.039Z,82.15
2024-01-19T05:22:17.513Z,82.53
2024-01-19T05:24:57.833Z,82.04
2024-01-19T05:27:37.159Z,82.11
2024-01-19T05:30:17.907Z,81.34
2024-01-19T05:32:57.435Z,81.47
2024-01-19T05:35:36.934Z,81.28
2024-01-19T05:38:21.305Z,81.60
2024-01-19T05:41:00.657Z,81.88
2024-01-19T05:43:41.219Z,81.74
2024-01-19T05:46:20.670Z,81.51
2024-01-19T05:49:00.087Z,81.71
2024-01-19T05:51:39.621Z,81.82
2024-01-19T05:54:23.998Z,82.23
2024-01-19T05:57:03.391Z,81.68
2024-01-19T05:59:43.126Z,82.58
2024-01-19T06:02:22.753Z,81.97
2024-01-19T06:05:02.140Z,83.03
2024-01-19T06:07:41.714Z,83.14
2024-01-19T06:10:26.765Z,82.46
2024-01-19T06:13:06.142Z,82.04
2024-01-19T06:15:45.522Z,82.04
2024-01-19T06:18:25.215Z,82.50
2024-01-19T06:21:05.226Z,83.42
2024-01-19T06:23:45.416Z,83.20
2024-01-19T06:26:34.614Z,82.97
2024-01-19T06:29:14.014Z,82.43
2024-01-19T06:31:54.358Z,81.86
2024-01-19T06:34:33.797Z,81.84
2024-01-19T06:37:13.161Z,82.29
2024-01-19T06:39:54.163Z,80.95
2024-01-19T06:42:38.660Z,79.98
2024-01-19T06:45:19.004Z,79.90
2024-01-19T06:47:58.409Z,79.84
2024-01-19T06:50:37.803Z,80.88
2024-01-19T06:53:17.104Z,81.32
2024-01-19T06:55:56.624Z,81.29
2024-01-19T06:58:52.900Z,81.67
2024-01-19T07:01:32.191Z,81.86
2024-01-19T07:04:11.978Z,82.10
2024-01-19T07:06:51.414Z,81.52
2024-01-19T07:09:31.465Z,81.36
2024-01-19T07:12:11.443Z,81.28
2024-01-19T07:14:55.899Z,81.98
2024-01-19T07:17:35.327Z,81.68
2024-01-19T07:20:16.396Z,81.77
2024-01-19T07:22:55.753Z,81.04
2024-01-19T07:25:35.576Z,81.67
2024-01-19T07:28:14.887Z,81.51
2024-01-19T07:30:59.368Z,81.15
2024-01-19T07:33:38.803Z,80.33
2024-01-19T07:36:20.919Z,80.78
2024-01-19T07:39:00.622Z,80.56
2024-01-19T07:41:40.099Z,80.43
2024-01-19T07:44:19.565Z,81.32
2024-01-19T07:47:04.034Z,81.60
2024-01-19T07:49:43.404Z,81.21
2024-01-19T07:52:22.776Z,80.37
2024-01-19T07:55:02.146Z,80.89
2024-01-19T07:57:41.480Z,80.22
2024-01-19T08:00:21.790Z,79.19
2024-01-19T08:03:06.924Z,79.41
2024-01-19T08:05:46.408Z,79.55
2024-01-19T08:08:25.738Z,79.42
2024-01-19T08:11:05.067Z,80.01
2024-01-19T08:13:44.358Z,80.16
2024-01-19T08:16:23.714Z,79.79
2024-01-19T08:19:08.377Z,79.98
2024-01-19T08:21:50.628Z,80.16
2024-01-19T08:24:29.901Z,80.59
2024-01-19T08:27:10.245Z,79.16
2024-01-19T08:29:49.583Z,81.31
2024-01-19T08:32:31.205Z,80.58
2024-01-19T08:35:15.861Z,80.91
2024-01-19T08:37:55.192Z,82.18
2024-01-19T08:40:34.524Z,81.43
2024-01-19T08:43:13.839Z,78.92
2024-01-19T08:45:53.424Z,78.60
2024-01-19T08:48:32.872Z,77.87
2024-01-19T08:51:17.415Z,78.45
2024-01-19T08:53:56.882Z,78.62
2024-01-19T08:56:40.866Z,78.96
2024-01-19T08:59:25.593Z,78.82
2024-01-19T09:02:04.913Z,78.52
2024-01-19T09:04:44.479Z,77.58
2024-01-19T09:07:28.967Z,78.28
2024-01-19T09:10:08.363Z,80.16
2024-01-19T09:12:47.675Z,81.05
2024-01-19T09:15:27.008Z,81.30
2024-01-19T09:18:06.358Z,81.32
2024-01-19T09:20:45.775Z,81.40
2024-01-19T09:23:30.192Z,80.85
2024-01-19T09:26:09.476Z,80.71
2024-01-19T09:28:48.781Z,80.22
2024-01-19T09:31:28.232Z,79.85
2024-01-19T09:34:07.634Z,79.90
2024-01-19T09:36:47.809Z,79.94
2024-01-19T09:39:32.196Z,80.16
2024-01-19T09:42:15.736Z,80.35
2024-01-19T09:45:09.947Z,79.87
2024-01-19T09:48:05.038Z,79.55
2024-01-19T09:50:45.043Z,78.99
2024-01-19T09:53:30.280Z,78.85
2024-01-19T09:56:14.759Z,78.38
2024-01-19T09:58:58.318Z,71.46
2024-01-19T10:01:38.722Z,60.85
2024-01-19T10:04:21.928Z,59.53
2024-01-19T10:07:03.879Z,58.52
2024-01-19T10:09:43.989Z,57.77
2024-01-19T10:12:31.011Z,57.07
2024-01-19T10:15:10.551Z,56.58
2024-01-19T10:17:51.426Z,55.81
2024-01-19T10:20:30.744Z,55.08
2024-01-19T10:23:28.946Z,54.42
2024-01-19T10:26:21.312Z,52.85
2024-01-19T10:29:05.701Z,52.22
2024-01-19T10:31:46.091Z,51.89
2024-01-19T10:34:29.292Z,53.95
2024-01-19T10:37:08.769Z,55.83
2024-01-19T10:39:48.077Z,64.74
2024-01-19T10:42:27.421Z,66.59
2024-01-19T10:45:23.249Z,65.63
2024-01-19T10:48:05.820Z,65.18
2024-01-19T10:50:45.201Z,56.42
2024-01-19T10:53:25.298Z,54.33
2024-01-19T10:56:05.127Z,53.48
2024-01-19T10:58:44.403Z,57.12
2024-01-19T11:01:29.291Z,62.14
2024-01-19T11:04:09.705Z,63.97
2024-01-19T11:06:49.208Z,64.72
2024-01-19T11:09:28.770Z,65.84
2024-01-19T11:12:13.227Z,66.58
2024-01-19T11:14:53.999Z,66.10
2024-01-19T11:17:38.924Z,67.47
2024-01-19T11:20:19.449Z,67.86
2024-01-19T11:22:59.918Z,68.25
2024-01-19T11:25:55.568Z,68.31
2024-01-19T11:28:44.051Z,68.74
2024-01-19T11:31:27.595Z,69.23
2024-01-19T11:34:12.161Z,69.03
2024-01-19T11:36:56.147Z,66.57
2024-01-19T11:39:49.101Z,67.76
2024-01-19T11:42:53.658Z,66.65
2024-01-19T11:45:49.979Z,67.20
2024-01-19T11:48:48.220Z,68.06
2024-01-19T11:51:44.647Z,68.70
2024-01-19T11:54:34.610Z,69.03
2024-01-19T11:57:26.841Z,69.44
2024-01-19T12:00:08.239Z,69.80
2024-01-19T12:02:47.859Z,70.44
2024-01-19T12:05:28.248Z,69.82
2024-01-19T12:08:14.195Z,69.60
2024-01-19T12:10:53.903Z,70.29
2024-01-19T12:13:33.350Z,70.44
2024-01-19T12:16:13.729Z,70.64
2024-01-19T12:18:54.093Z,70.95
2024-01-19T12:21:34.173Z,71.11
2024-01-19T12:24:18.757Z,70.56
2024-01-19T12:26:58.321Z,70.42
2024-01-19T12:29:38.668Z,70.80
2024-01-19T12:32:19.617Z,71.14
2024-01-19T12:35:06.047Z,70.48
2024-01-19T12:37:45.991Z,71.59
2024-01-19T12:40:30.971Z,71.03
2024-01-19T12:43:12.029Z,71.47
2024-01-19T12:45:51.318Z,70.69
2024-01-19T12:48:35.344Z,69.80
2024-01-19T12:51:17.835Z,70.79
2024-01-19T12:54:02.385Z,71.26
2024-01-19T12:56:46.831Z,72.06
2024-01-19T12:59:31.016Z,70.67
2024-01-19T13:02:10.619Z,70.66
2024-01-19T13:04:49.971Z,71.82
2024-01-19T13:07:30.849Z,73.29
2024-01-19T13:10:10.993Z,71.43
2024-01-19T13:12:55.985Z,71.84
2024-01-19T13:15:39.751Z,71.91
2024-01-19T13:18:20.618Z,72.37
2024-01-19T13:20:59.992Z,72.86
2024-01-19T13:23:39.314Z,72.80
2024-01-19T13:26:27.129Z,72.69
2024-01-19T13:29:11.671Z,71.95
2024-01-19T13:31:51.301Z,72.25
2024-01-19T13:34:31.050Z,72.35
2024-01-19T13:37:10.673Z,70.66
2024-01-19T13:39:50.279Z,70.29
2024-01-19T13:42:30.029Z,70.44
2024-01-19T13:45:15.713Z,66.22
2024-01-19T13:47:55.196Z,47.98
2024-01-19T13:50:34.611Z,48.20
2024-01-19T13:53:14.000Z,44.88
2024-01-19T13:55:53.417Z,46.93
2024-01-19T13:58:32.840Z,57.72
2024-01-19T14:01:19.453Z,62.88
2024-01-19T14:04:00.105Z,64.49
2024-01-19T14:06:40.041Z,65.49
2024-01-19T14:09:20.406Z,67.53
2024-01-19T14:12:00.234Z,66.48
2024-01-19T14:14:39.913Z,67.06
2024-01-19T14:17:25.580Z,68.76
2024-01-19T14:20:04.876Z,68.68
2024-01-19T14:22:44.477Z,68.44
2024-01-19T14:25:23.814Z,69.87
2024-01-19T14:28:03.183Z,70.89
2024-01-19T14:30:43.479Z,70.70
2024-01-19T14:33:28.379Z,70.84
2024-01-19T14:36:07.963Z,70.94
2024-01-19T14:38:47.285Z,71.92
2024-01-19T14:41:26.584Z,71.66
2024-01-19T14:44:06.626Z,72.20
2024-01-19T14:46:46.166Z,71.42
2024-01-19T14:49:37.711Z,70.96
2024-01-19T14:52:18.692Z,71.43
2024-01-19T14:55:00.652Z,72.28
2024-01-19T14:57:40.065Z,70.81
2024-01-19T15:00:21.203Z,70.94
2024-01-19T15:03:01.111Z,73.05
2024-01-19T15:05:46.319Z,74.15
2024-01-19T15:08:25.628Z,74.61
2024-01-19T15:11:05.018Z,75.44
2024-01-19T15:13:45.124Z,76.11
2024-01-19T15:16:24.598Z,75.41
2024-01-19T15:19:04.058Z,75.14
2024-01-19T15:21:48.476Z,75.56
2024-01-19T15:24:27.882Z,74.99
2024-01-19T15:27:07.268Z,74.96
2024-01-19T15:29:46.577Z,74.93
2024-01-19T15:32:26.000Z,75.04
2024-01-19T15:35:05.415Z,75.03
2024-01-19T15:37:49.805Z,75.68
2024-01-19T15:40:29.161Z,76.09
2024-01-19T15:43:08.478Z,76.44
2024-01-19T15:45:48.205Z,76.76
2024-01-19T15:48:27.839Z,76.93
2024-01-19T15:51:07.172Z,76.41
2024-01-19T15:53:54.930Z,75.97
2024-01-19T15:56:37.858Z,76.18
2024-01-19T15:59:18.105Z,76.23
2024-01-19T16:01:57.918Z,76.16
2024-01-19T16:04:37.490Z,76.91
2024-01-19T16:07:16.979Z,77.79
2024-01-19T16:10:01.328Z,77.62
2024-01-19T16:12:40.636Z,77.93
2024-01-19T16:15:21.059Z,77.77
2024-01-19T16:18:00.768Z,77.19
2024-01-19T16:20:40.703Z,76.28
2024-01-19T16:23:20.076Z,75.33
2024-01-19T16:26:04.471Z,76.37
2024-01-19T16:28:43.826Z,75.94
2024-01-19T16:31:23.229Z,77.48
2024-01-19T16:34:04.603Z,77.14
2024-01-19T16:36:47.209Z,76.53
2024-01-19T16:39:26.541Z,76.49
2024-01-19T16:42:11.931Z,76.37
2024-01-19T16:44:51.300Z,76.96
2024-01-19T16:47:31.432Z,76.72
2024-01-19T16:50:11.216Z,77.76
2024-01-19T16:52:50.630Z,77.72
2024-01-19T16:55:29.978Z,77.92
2024-01-19T16:58:15.271Z,78.53
2024-01-19T17:00:54.613Z,79.45
2024-01-19T17:03:34.528Z,79.66
2024-01-19T17:06:14.441Z,79.84
2024-01-19T17:08:53.766Z,79.73
2024-01-19T17:11:33.253Z,79.45
2024-01-19T17:14:17.750Z,79.79
2024-01-19T17:16:57.110Z,80.06
2024-01-19T17:19:36.432Z,80.15
2024-01-19T17:22:15.746Z,80.03
2024-01-19T17:24:55.548Z,80.23
2024-01-19T17:27:34.869Z,79.94
2024-01-19T17:30:21.969Z,79.68
2024-01-19T17:33:01.568Z,80.10
2024-01-19T17:35:41.018Z,79.52
2024-01-19T17:38:20.615Z,78.66
2024-01-19T17:41:00.005Z,79.95
2024-01-19T17:43:40.396Z,80.17
2024-01-19T17:46:25.403Z,80.07
2024-01-19T17:49:05.007Z,79.08
2024-01-19T17:51:44.376Z,78.32
2024-01-19T17:54:24.283Z,78.20
2024-01-19T17:57:03.765Z,78.51
2024-01-19T17:59:45.095Z,78.58
2024-01-19T18:02:29.406Z,77.39
2024-01-19T18:05:08.977Z,78.10
2024-01-19T18:07:49.125Z,79.26
2024-01-19T18:10:29.095Z,79.18
2024-01-19T18:13:08.984Z,79.14
2024-01-19T18:15:48.823Z,79.74
2024-01-19T18:18:36.378Z,79.79
2024-01-19T18:21:16.736Z,79.87
2024-01-19T18:23:56.490Z,80.02
2024-01-19T18:26:37.034Z,80.08
2024-01-19T18:29:16.393Z,79.57
2024-01-19T18:31:56.358Z,79.11
2024-01-19T18:34:40.729Z,79.72
2024-01-19T18:37:20.192Z,80.30
2024-01-19T18:40:00.695Z,79.76
2024-01-19T18:42:40.923Z,79.50
2024-01-19T18:45:21.257Z,79.82
2024-01-19T18:48:01.071Z,80.20
2024-01-19T18:50:45.485Z,80.09
2024-01-19T18:53:24.831Z,79.78
2024-01-19T18:56:04.215Z,79.00
2024-01-19T18:58:45.411Z,79.16
2024-01-19T19:01:24.846Z,77.96
2024-01-19T19:04:04.352Z,79.83
2024-01-19T19:06:49.036Z,78.69
2024-01-19T19:09:30.153Z,77.78
2024-01-19T19:12:09.469Z,79.79
2024-01-19T19:14:48.952Z,79.43
2024-01-19T19:17:28.781Z,79.34
2024-01-19T19:20:09.583Z,80.89
2024-01-19T19:22:54.042Z,80.99
2024-01-19T19:25:34.840Z,81.30
2024-01-19T19:28:14.692Z,81.15
2024-01-19T19:30:53.974Z,81.33
2024-01-19T19:33:33.576Z,81.42
2024-01-19T19:36:14.859Z,81.31
2024-01-19T19:39:00.186Z,81.15
2024-01-19T19:41:39.452Z,81.78
2024-01-19T19:44:19.194Z,81.55
2024-01-19T19:46:58.616Z,81.43
2024-01-19T19:49:39.324Z,80.65
2024-01-19T19:52:18.720Z,79.91
2024-01-19T19:55:03.179Z,79.85
2024-01-19T19:57:43.419Z,80.72
2024-01-19T20:00:23.525Z,80.40
2024-01-19T20:03:02.826Z,80.37
2024-01-19T20:05:42.199Z,81.10
2024-01-19T20:08:22.384Z,81.68
2024-01-19T20:11:07.863Z,80.99
2024-01-19T20:13:47.488Z,81.68
2024-01-19T20:16:28.101Z,81.43
2024-01-19T20:19:07.644Z,81.72
2024-01-19T20:21:46.999Z,82.31
2024-01-19T20:24:26.314Z,82.13
2024-01-19T20:27:11.942Z,80.89
2024-01-19T20:29:53.676Z,81.68
2024-01-19T20:32:33.231Z,81.84
2024-01-19T20:35:13.549Z,81.26
2024-01-19T20:37:55.830Z,80.92
2024-01-19T20:40:35.975Z,80.16
2024-01-19T20:43:20.368Z,80.04
2024-01-19T20:45:59.654Z,80.04
2024-01-19T20:48:39.073Z,80.07
2024-01-19T20:51:18.629Z,80.24
2024-01-19T20:53:57.948Z,80.45
2024-01-19T20:56:37.401Z,80.80
2024-01-19T20:59:23.032Z,80.59
2024-01-19T21:02:05.282Z,80.74
2024-01-19T21:04:44.882Z,80.93
2024-01-19T21:07:24.384Z,80.98
2024-01-19T21:10:03.982Z,80.77
2024-01-19T21:12:44.801Z,80.56
2024-01-19T21:15:31.085Z,81.12
2024-01-19T21:18:11.062Z,80.45
2024-01-19T21:20:50.665Z,80.62
2024-01-19T21:23:30.053Z,80.61
2024-01-19T21:26:09.704Z,80.13
2024-01-19T21:28:49.034Z,80.59
2024-01-19T21:31:33.599Z,80.59
2024-01-19T21:34:12.945Z,80.46
2024-01-19T21:36:52.317Z,79.65
2024-01-19T21:39:31.788Z,80.27
2024-01-19T21:42:11.715Z,80.65
2024-01-19T21:44:51.532Z,80.61
2024-01-19T21:47:36.124Z,81.28
2024-01-19T21:50:17.016Z,80.54
2024-01-19T21:52:57.037Z,81.07
2024-01-19T21:55:36.921Z,80.73
2024-01-19T21:58:16.855Z,80.97
2024-01-19T22:00:56.659Z,81.06
2024-01-19T22:03:41.206Z,80.95
2024-01-19T22:06:20.700Z,81.08
2024-01-19T22:09:00.316Z,81.80
2024-01-19T22:11:47.073Z,81.86
2024-01-19T22:14:33.743Z,81.66
2024-01-19T22:17:13.188Z,82.21
2024-01-19T22:19:58.349Z,82.07
2024-01-19T22:22:37.690Z,82.21
2024-01-19T22:25:17.320Z,81.30
2024-01-19T22:27:56.660Z,81.69
2024-01-19T22:30:37.727Z,81.86
2024-01-19T22:33:17.127Z,81.36
2024-01-19T22:36:07.736Z,81.20
2024-01-19T22:38:54.383Z,80.91
2024-01-19T22:41:34.300Z,81.28
2024-01-19T22:44:16.097Z,80.65
2024-01-19T22:46:55.753Z,81.31
2024-01-19T22:49:35.264Z,80.86
2024-01-19T22:52:22.128Z,79.85
2024-01-19T22:55:02.018Z,80.35
2024-01-19T22:57:41.635Z,80.82
2024-01-19T23:00:25.154Z,80.74
2024-01-19T23:03:04.502Z,79.96
2024-01-19T23:05:43.859Z,80.00
2024-01-19T23:08:28.379Z,81.37
2024-01-19T23:11:07.781Z,82.04
2024-01-19T23:13:47.252Z,81.96
2024-01-19T23:16:26.982Z,81.60
2024-01-19T23:19:11.265Z,82.06
2024-01-19T23:21:56.612Z,80.78
2024-01-19T23:24:41.305Z,82.46
2024-01-19T23:27:20.997Z,81.22
2024-01-19T23:30:00.507Z,80.48
2024-01-19T23:32:40.246Z,80.51
2024-01-19T23:35:19.719Z,79.80
2024-01-19T23:37:59.409Z,79.45
2024-01-19T23:40:43.844Z,80.16
2024-01-19T23:43:23.588Z,81.13
2024-01-19T23:46:02.904Z,80.54
2024-01-19T23:48:42.216Z,77.52
2024-01-19T23:51:21.654Z,78.45
2024-01-19T23:54:01.562Z,80.25
2024-01-19T23:56:45.892Z,76.74
2024-01-19T23:59:25.189Z,79.29
